Lake Winnipegosis: Past 24 Hour Conditions

 

Berens River Airport

05:00 PM CST 23 November 2017
Disclaimer

This table is a summary of hourly weather conditions for the past 24 hours.
Please note that these observations might not always be representative of weather conditions over their associated marine area.

Date / Time
(CST)
Wind(knots) Conditions Visibility(km) Pressure(kPa) Air tempC) Relative humidity(%) Dew pointC) Wind Chill
23 November 2017
17:00 ESE 11 gust 18 N/A N/A 99.8 -11 83 -14 -19
16:00 ESE 11 Light Snow 24 100.1 -12 81 -14 -20
15:00 ESE 10 gust 19 Light Snow 16 100.2 -12 82 -14 -20
14:00 SE 8 Light Snow 4 100.6 -12 82 -15 -20
13:00 ESE 12 Light Snow 5 100.7 -12 76 -16 -21
12:00 SE 11 Mostly Cloudy 24 100.9 -13 73 -16 -21
11:00 SE 9 Mostly Cloudy 24 101.1 -13 75 -17 -21
10:00 SE 4 Mostly Cloudy 24 101.2 -14 80 -17 -19
9:00 SSE 4 Mostly Cloudy 24 101.3 -15 85 -17 -20
8:00 SSE 4 Mostly Cloudy 24 101.3 -15 86 -17 -20
7:00 SSE 3 Light Snow 24 101.4 -15 84 -17 -19
6:00 calm N/A N/A 101.4 -14 84 -17 *
5:00 ENE 2 N/A N/A 101.5 -14 83 -16 -17
4:00 N 5 N/A N/A 101.5 -13 83 -16 -19
3:00 NNW 5 N/A N/A 101.4 -13 81 -15 -18
2:00 NW 6 N/A N/A 101.3 -12 82 -15 -18
1:00 NW 10 N/A N/A 101.3 -11 82 -14 -19
0:00 WNW 7 N/A N/A 101.3 -12 79 -15 -18
22 November 2017
23:00 WNW 9 N/A N/A 101.3 -11 75 -15 -18
22:00 WNW 10 N/A N/A 101.4 -11 76 -14 -19
21:00 WNW 10 N/A N/A 101.4 -11 74 -14 -18
20:00 WNW 11 gust 16 N/A N/A 101.4 -10 71 -15 -18
19:00 WSW 6 N/A N/A 101.4 -15 88 -17 -22
18:00 WSW 2 N/A N/A 101.4 -15 85 -17 -19
17:00 WSW 4 N/A N/A 101.4 -11 78 -14 -16

Zoom-in to make a selection

Map of Prairies - Manitoba Lakes marine weather areas Lake Winnipeg South Basin - 45140 Lake Winnipeg North - 45144 Lake Winnipeg Narrows - 45145 Lake Of the Woods - 45148 Carberry Portage Southport Airport Wasagaming Sprague Winnipeg Richardson Int'l Airport Berens River Airport George Island Gimli Harbour Gimli Victoria Beach Dauphin Airport McCreary Norway House Airport Royal Island Fisher Branch Grand Rapids Oak Point Marine Swan River Kenora Airport
Legend:
buoy Buoy
land station Land Station

Prairies - Manitoba Lakes Area

Another Region

What we are doing

Date modified: